createdAt,value
2022-08-14T00:00:16.122Z,97.10
2022-08-14T00:02:45.981Z,96.90
2022-08-14T00:05:16.605Z,96.60
2022-08-14T00:07:46.329Z,98.10
2022-08-14T00:10:52.178Z,97.60
2022-08-14T00:13:07.279Z,97.90
2022-08-14T00:15:44.303Z,98.40
2022-08-14T00:18:30.788Z,98.20
2022-08-14T00:21:11.287Z,97.50
2022-08-14T00:23:40.280Z,97.60
2022-08-14T00:26:21.778Z,98.00
2022-08-14T00:28:54.590Z,97.60
2022-08-14T00:31:35.251Z,98.40
2022-08-14T00:34:35.524Z,97.70
2022-08-14T00:36:59.787Z,98.00
2022-08-14T00:39:30.327Z,98.30
2022-08-14T00:41:58.894Z,98.40
2022-08-14T00:44:32.843Z,98.70
2022-08-14T00:47:02.570Z,98.50
2022-08-14T00:49:31.122Z,98.30
2022-08-14T00:52:07.164Z,98.60
2022-08-14T00:54:37.528Z,98.80
2022-08-14T00:57:07.121Z,98.50
2022-08-14T00:59:38.287Z,98.30
2022-08-14T01:02:09.326Z,98.20
2022-08-14T01:04:53.749Z,98.50
2022-08-14T01:07:24.775Z,99.10
2022-08-14T01:09:58.913Z,98.30
2022-08-14T01:12:30.471Z,98.30
2022-08-14T01:15:01.889Z,98.30
2022-08-14T01:17:49.759Z,99.40
2022-08-14T01:20:39.962Z,99.90
2022-08-14T01:23:16.708Z,99.90
2022-08-14T01:25:51.329Z,99.90
2022-08-14T01:28:47.332Z,99.90
2022-08-14T01:31:12.541Z,99.90
2022-08-14T01:35:15.751Z,99.90
2022-08-14T01:36:39.464Z,99.90
2022-08-14T01:39:13.508Z,99.90
2022-08-14T01:41:44.415Z,99.90
2022-08-14T01:47:01.061Z,99.90
2022-08-14T01:49:35.524Z,99.90
2022-08-14T01:52:23.271Z,99.90
2022-08-14T01:55:01.491Z,99.90
2022-08-14T01:57:49.725Z,99.90
2022-08-14T02:00:18.811Z,99.90
2022-08-14T02:02:47.699Z,99.90
2022-08-14T02:05:21.432Z,99.90
2022-08-14T02:08:08.569Z,99.90
2022-08-14T02:10:46.569Z,99.90
2022-08-14T02:13:12.520Z,99.90
2022-08-14T02:15:43.762Z,99.90
2022-08-14T02:18:15.278Z,99.90
2022-08-14T02:20:43.759Z,99.90
2022-08-14T02:23:12.187Z,99.90
2022-08-14T02:25:41.939Z,99.90
2022-08-14T02:28:22.669Z,99.90
2022-08-14T02:30:59.856Z,99.90
2022-08-14T02:33:29.546Z,99.90
2022-08-14T02:36:05.263Z,99.90
2022-08-14T02:38:52.079Z,99.90
2022-08-14T02:41:22.014Z,99.90
2022-08-14T02:44:00.982Z,99.90
2022-08-14T02:46:32.242Z,99.90
2022-08-14T02:49:06.273Z,99.90
2022-08-14T02:51:36.440Z,99.90
2022-08-14T02:54:07.166Z,99.90
2022-08-14T02:57:16.500Z,99.90
2022-08-14T02:59:33.785Z,99.90
2022-08-14T03:02:03.306Z,99.90
2022-08-14T03:04:32.713Z,99.90
2022-08-14T03:07:07.463Z,99.90
2022-08-14T03:10:25.189Z,99.90
2022-08-14T03:12:32.227Z,99.90
2022-08-14T03:15:14.235Z,99.90
2022-08-14T03:17:57.391Z,99.90
2022-08-14T03:20:27.871Z,99.90
2022-08-14T03:22:59.473Z,99.90
2022-08-14T03:25:31.075Z,99.90
2022-08-14T03:28:03.825Z,99.90
2022-08-14T03:30:39.856Z,99.90
2022-08-14T03:33:11.087Z,99.90
2022-08-14T03:35:59.801Z,99.90
2022-08-14T03:39:14.168Z,99.90
2022-08-14T03:41:23.316Z,99.90
2022-08-14T03:44:00.925Z,99.90
2022-08-14T03:46:38.767Z,99.90
2022-08-14T03:49:28.384Z,99.90
2022-08-14T03:52:00.442Z,99.90
2022-08-14T03:54:29.345Z,99.90
2022-08-14T03:57:02.495Z,99.90
2022-08-14T03:59:33.251Z,99.90
2022-08-14T04:02:04.501Z,99.90
2022-08-14T04:04:53.383Z,99.90
2022-08-14T04:07:22.515Z,99.90
2022-08-14T04:09:51.297Z,99.90
2022-08-14T04:12:26.644Z,99.90
2022-08-14T04:14:56.997Z,99.90
2022-08-14T04:17:26.435Z,99.90
2022-08-14T04:19:55.402Z,99.90
2022-08-14T04:22:25.256Z,99.90
2022-08-14T04:24:53.913Z,99.90
2022-08-14T04:27:23.263Z,99.90
2022-08-14T04:29:54.378Z,99.90
2022-08-14T04:33:01.834Z,99.90
2022-08-14T04:35:23.567Z,99.90
2022-08-14T04:38:36.626Z,99.90
2022-08-14T04:41:15.488Z,99.90
2022-08-14T04:43:43.995Z,99.90
2022-08-14T04:46:56.110Z,99.90
2022-08-14T04:49:08.074Z,99.90
2022-08-14T04:51:37.511Z,99.90
2022-08-14T04:54:24.616Z,99.90
2022-08-14T04:56:54.302Z,99.90
2022-08-14T04:59:23.159Z,99.90
2022-08-14T05:01:56.795Z,99.90
2022-08-14T05:04:26.958Z,99.90
2022-08-14T05:06:55.867Z,99.90
2022-08-14T05:09:29.048Z,99.90
2022-08-14T05:12:33.932Z,99.90
2022-08-14T05:14:54.550Z,99.90
2022-08-14T05:17:31.916Z,99.90
2022-08-14T05:21:55.529Z,99.90
2022-08-14T05:23:02.380Z,99.90
2022-08-14T05:25:33.699Z,99.90
2022-08-14T05:28:12.384Z,99.90
2022-08-14T05:30:43.707Z,99.90
2022-08-14T05:33:14.094Z,99.90
2022-08-14T05:35:45.305Z,99.90
2022-08-14T05:38:22.412Z,99.90
2022-08-14T05:40:59.730Z,99.90
2022-08-14T05:43:40.887Z,99.90
2022-08-14T05:46:15.263Z,99.90
2022-08-14T05:48:44.015Z,99.90
2022-08-14T05:51:15.162Z,99.90
2022-08-14T05:54:00.345Z,99.90
2022-08-14T05:56:32.655Z,99.90
2022-08-14T05:59:05.622Z,99.90
2022-08-14T06:01:35.953Z,99.90
2022-08-14T06:04:05.061Z,99.90
2022-08-14T06:06:38.510Z,99.90
2022-08-14T06:09:09.802Z,99.90
2022-08-14T06:11:38.487Z,99.90
2022-08-14T06:14:20.940Z,99.90
2022-08-14T06:16:50.122Z,99.90
2022-08-14T06:19:23.459Z,99.90
2022-08-14T06:21:58.402Z,99.90
2022-08-14T06:24:30.740Z,99.90
2022-08-14T06:27:04.690Z,99.90
2022-08-14T06:29:35.409Z,99.90
2022-08-14T06:32:52.543Z,99.90
2022-08-14T06:35:11.662Z,99.90
2022-08-14T06:37:45.186Z,99.90
2022-08-14T06:40:27.305Z,99.90
2022-08-14T06:43:00.020Z,99.90
2022-08-14T06:45:31.829Z,99.90
2022-08-14T06:48:01.296Z,99.90
2022-08-14T06:50:31.649Z,99.90
2022-08-14T06:53:03.411Z,99.90
2022-08-14T06:55:31.828Z,99.70
2022-08-14T06:58:00.117Z,99.50
2022-08-14T07:00:31.666Z,99.80
2022-08-14T07:03:17.865Z,99.50
2022-08-14T07:05:55.727Z,99.50
2022-08-14T07:08:31.183Z,99.00
2022-08-14T07:11:04.114Z,98.40
2022-08-14T07:13:32.753Z,97.80
2022-08-14T07:16:05.461Z,98.10
2022-08-14T07:18:35.768Z,98.20
2022-08-14T07:21:07.214Z,97.50
2022-08-14T07:23:40.243Z,97.30
2022-08-14T07:26:14.062Z,96.50
2022-08-14T07:28:43.852Z,96.70
2022-08-14T07:31:13.888Z,96.20
2022-08-14T07:33:50.532Z,95.80
2022-08-14T07:36:27.435Z,95.50
2022-08-14T07:39:00.918Z,94.90
2022-08-14T07:41:35.730Z,94.40
2022-08-14T07:44:32.456Z,94.50
2022-08-14T07:46:53.814Z,94.40
2022-08-14T07:49:24.505Z,94.20
2022-08-14T07:51:52.888Z,93.50
2022-08-14T07:54:23.296Z,93.50
2022-08-14T07:56:59.790Z,92.90
2022-08-14T07:59:41.615Z,92.70
2022-08-14T08:02:18.836Z,91.40
2022-08-14T08:04:54.249Z,91.30
2022-08-14T08:07:23.932Z,90.70
2022-08-14T08:09:57.241Z,90.40
2022-08-14T08:12:31.138Z,90.10
2022-08-14T08:15:05.812Z,90.00
2022-08-14T08:17:53.169Z,89.80
2022-08-14T08:20:27.234Z,87.90
2022-08-14T08:23:05.893Z,88.80
2022-08-14T08:25:39.669Z,84.90
2022-08-14T08:28:21.889Z,87.10
2022-08-14T08:30:53.271Z,87.30
2022-08-14T08:33:23.513Z,85.80
2022-08-14T08:35:53.450Z,85.90
2022-08-14T08:39:16.959Z,85.10
2022-08-14T08:41:14.588Z,84.90
2022-08-14T08:43:46.069Z,82.90
2022-08-14T08:46:21.161Z,82.50
2022-08-14T08:51:25.042Z,79.10
2022-08-14T08:54:01.097Z,77.60
2022-08-14T08:56:40.579Z,77.30
2022-08-14T08:59:31.130Z,77.80
2022-08-14T09:02:01.902Z,76.90
2022-08-14T09:04:37.630Z,77.90
2022-08-14T09:07:14.523Z,77.40
2022-08-14T09:09:54.045Z,76.20
2022-08-14T09:12:31.758Z,77.50
2022-08-14T09:15:02.899Z,71.80
2022-08-14T09:17:31.242Z,72.20
2022-08-14T09:20:02.267Z,72.90
2022-08-14T09:22:32.960Z,74.00
2022-08-14T09:25:19.500Z,75.90
2022-08-14T09:27:49.672Z,76.20
2022-08-14T09:30:32.887Z,74.40
2022-08-14T09:33:31.850Z,72.60
2022-08-14T09:36:22.539Z,74.00
2022-08-14T09:39:02.617Z,70.40
2022-08-14T09:42:20.821Z,71.20
2022-08-14T09:44:49.621Z,72.40
2022-08-14T09:47:18.735Z,70.80
2022-08-14T09:49:53.395Z,70.30
2022-08-14T09:52:33.945Z,70.80
2022-08-14T09:55:03.331Z,69.20
2022-08-14T09:57:32.576Z,68.10
2022-08-14T10:00:29.266Z,68.60
2022-08-14T10:03:05.872Z,65.30
2022-08-14T10:05:38.013Z,65.30
2022-08-14T10:08:25.368Z,65.00
2022-08-14T10:10:57.188Z,65.60
2022-08-14T10:13:42.878Z,65.40
2022-08-14T10:16:25.980Z,63.10
2022-08-14T10:19:09.226Z,64.00
2022-08-14T10:21:58.626Z,62.50
2022-08-14T10:24:36.915Z,62.00
2022-08-14T10:27:16.396Z,59.60
2022-08-14T10:29:48.676Z,58.30
2022-08-14T10:32:28.540Z,56.00
2022-08-14T10:35:13.749Z,57.50
2022-08-14T10:37:48.427Z,57.90
2022-08-14T10:40:37.697Z,56.40
2022-08-14T10:43:23.927Z,57.20
2022-08-14T10:46:03.855Z,56.30
2022-08-14T10:49:00.890Z,55.80
2022-08-14T10:51:34.060Z,55.80
2022-08-14T10:54:16.957Z,56.70
2022-08-14T10:57:20.675Z,54.90
2022-08-14T10:59:55.709Z,55.40
2022-08-14T11:02:44.691Z,55.90
2022-08-14T11:05:23.640Z,54.00
2022-08-14T11:08:00.366Z,54.70
2022-08-14T11:10:43.004Z,53.50
2022-08-14T11:13:16.466Z,53.70
2022-08-14T11:15:46.268Z,54.20
2022-08-14T11:18:20.612Z,53.30
2022-08-14T11:21:02.188Z,53.20
2022-08-14T11:23:37.754Z,53.30
2022-08-14T11:26:07.774Z,52.40
2022-08-14T11:28:47.522Z,54.30
2022-08-14T11:31:20.610Z,53.20
2022-08-14T11:33:57.625Z,53.00
2022-08-14T11:36:35.193Z,52.50
2022-08-14T11:39:34.003Z,53.30
2022-08-14T11:42:55.587Z,50.30
2022-08-14T11:45:00.152Z,52.00
2022-08-14T11:47:35.187Z,51.00
2022-08-14T11:50:24.926Z,51.70
2022-08-14T11:53:04.452Z,52.20
2022-08-14T11:55:38.321Z,52.10
2022-08-14T11:58:10.318Z,51.10
2022-08-14T12:00:48.642Z,50.40
2022-08-14T12:03:26.943Z,49.80
2022-08-14T12:06:27.807Z,50.00
2022-08-14T12:08:59.895Z,50.10
2022-08-14T12:11:43.497Z,50.80
2022-08-14T12:14:13.352Z,51.10
2022-08-14T12:17:24.217Z,51.20
2022-08-14T12:19:56.854Z,52.10
2022-08-14T12:24:53.933Z,50.60
2022-08-14T12:29:54.359Z,50.40
2022-08-14T12:32:25.394Z,51.30
2022-08-14T12:34:55.323Z,50.90
2022-08-14T12:37:32.186Z,50.40
2022-08-14T12:40:19.527Z,50.00
2022-08-14T12:42:53.700Z,49.70
2022-08-14T12:45:32.812Z,48.50
2022-08-14T12:48:21.112Z,49.40
2022-08-14T12:53:43.619Z,48.60
2022-08-14T12:56:32.774Z,50.70
2022-08-14T12:59:05.058Z,49.60
2022-08-14T13:01:59.432Z,48.80
2022-08-14T13:04:23.273Z,47.40
2022-08-14T13:06:53.089Z,47.20
2022-08-14T13:09:35.819Z,46.90
2022-08-14T13:12:33.517Z,48.10
2022-08-14T13:14:57.945Z,46.90
2022-08-14T13:17:27.314Z,46.90
2022-08-14T13:19:58.339Z,47.70
2022-08-14T13:22:33.531Z,47.20
2022-08-14T13:25:09.393Z,47.60
2022-08-14T13:27:40.597Z,47.70
2022-08-14T13:30:14.474Z,47.90
2022-08-14T13:32:53.234Z,46.80
2022-08-14T13:35:22.706Z,48.20
2022-08-14T13:37:53.376Z,48.40
2022-08-14T13:40:26.226Z,46.30
2022-08-14T13:42:57.175Z,46.70
2022-08-14T13:45:56.407Z,46.70
2022-08-14T13:48:27.711Z,46.70
2022-08-14T13:51:04.783Z,46.10
2022-08-14T13:53:38.238Z,45.60
2022-08-14T13:56:36.164Z,45.70
2022-08-14T13:59:03.997Z,45.60
2022-08-14T14:01:43.312Z,46.70
2022-08-14T14:04:19.073Z,45.50
2022-08-14T14:06:51.063Z,45.90
2022-08-14T14:09:32.450Z,47.10
2022-08-14T14:12:38.150Z,47.00
2022-08-14T14:14:57.567Z,46.80
2022-08-14T14:17:33.564Z,47.50
2022-08-14T14:20:03.077Z,47.70
2022-08-14T14:22:35.871Z,47.90
2022-08-14T14:25:23.647Z,47.30
2022-08-14T14:27:54.035Z,47.90
2022-08-14T14:30:51.851Z,46.80
2022-08-14T14:33:42.332Z,48.00
2022-08-14T14:36:04.998Z,46.40
2022-08-14T14:38:40.995Z,46.60
2022-08-14T14:41:10.654Z,45.60
2022-08-14T14:43:44.961Z,45.60
2022-08-14T14:46:15.764Z,45.10
2022-08-14T14:48:46.609Z,44.80
2022-08-14T14:51:22.291Z,43.80
2022-08-14T14:53:52.433Z,44.20
2022-08-14T14:56:49.894Z,44.80
2022-08-14T14:59:13.476Z,44.60
2022-08-14T15:01:44.979Z,45.40
2022-08-14T15:04:20.001Z,46.70
2022-08-14T15:06:49.960Z,44.50
2022-08-14T15:09:23.611Z,44.30
2022-08-14T15:11:52.163Z,44.80
2022-08-14T15:14:54.613Z,44.60
2022-08-14T15:17:12.920Z,45.10
2022-08-14T15:19:42.125Z,45.90
2022-08-14T15:22:25.295Z,44.40
2022-08-14T15:24:53.655Z,44.30
2022-08-14T15:27:26.529Z,44.80
2022-08-14T15:29:56.611Z,45.80
2022-08-14T15:32:25.003Z,46.80
2022-08-14T15:34:58.172Z,47.90
2022-08-14T15:37:26.373Z,48.10
2022-08-14T15:40:02.246Z,48.00
2022-08-14T15:42:32.014Z,47.70
2022-08-14T15:45:02.416Z,47.30
2022-08-14T15:47:32.316Z,48.40
2022-08-14T15:50:04.851Z,49.50
2022-08-14T15:52:37.175Z,48.60
2022-08-14T15:55:10.157Z,46.80
2022-08-14T15:58:01.934Z,47.70
2022-08-14T16:00:51.838Z,47.00
2022-08-14T16:03:27.582Z,49.20
2022-08-14T16:06:10.738Z,49.20
2022-08-14T16:11:14.184Z,49.50
2022-08-14T16:13:44.506Z,50.10
2022-08-14T16:16:47.517Z,51.20
2022-08-14T16:19:09.600Z,51.70
2022-08-14T16:22:01.404Z,49.70
2022-08-14T16:24:33.753Z,50.60
2022-08-14T16:27:03.506Z,51.00
2022-08-14T16:29:35.736Z,51.90
2022-08-14T16:32:32.587Z,51.60
2022-08-14T16:34:55.906Z,51.80
2022-08-14T16:37:33.931Z,52.40
2022-08-14T16:40:03.628Z,51.60
2022-08-14T16:43:02.948Z,52.10
2022-08-14T16:45:26.529Z,51.80
2022-08-14T16:47:57.309Z,52.00
2022-08-14T16:50:43.192Z,53.50
2022-08-14T16:53:17.283Z,53.20
2022-08-14T16:55:51.104Z,54.40
2022-08-14T16:58:29.943Z,54.30
2022-08-14T17:01:23.191Z,54.50
2022-08-14T17:04:00.713Z,54.20
2022-08-14T17:06:45.867Z,54.20
2022-08-14T17:09:33.476Z,54.50
2022-08-14T17:12:07.579Z,53.10
2022-08-14T17:14:57.460Z,54.00
2022-08-14T17:17:41.768Z,54.20
2022-08-14T17:20:39.580Z,54.00
2022-08-14T17:23:02.988Z,52.50
2022-08-14T17:25:39.731Z,53.70
2022-08-14T17:28:52.099Z,55.40
2022-08-14T17:31:08.715Z,55.60
2022-08-14T17:33:40.546Z,54.30
2022-08-14T17:36:21.085Z,53.20
2022-08-14T17:39:06.447Z,53.50
2022-08-14T17:41:38.843Z,54.80
2022-08-14T17:44:20.166Z,55.10
2022-08-14T17:46:56.916Z,52.00
2022-08-14T17:49:31.873Z,53.00
2022-08-14T17:52:07.843Z,54.50
2022-08-14T17:54:47.517Z,54.20
2022-08-14T17:57:23.224Z,53.80
2022-08-14T17:59:52.876Z,54.10
2022-08-14T18:02:31.301Z,54.30
2022-08-14T18:05:03.084Z,55.20
2022-08-14T18:08:31.242Z,55.00
2022-08-14T18:10:54.967Z,55.10
2022-08-14T18:13:11.450Z,55.70
2022-08-14T18:15:41.397Z,56.30
2022-08-14T18:18:13.799Z,57.60
2022-08-14T18:21:24.337Z,57.90
2022-08-14T18:23:34.166Z,59.60
2022-08-14T18:26:37.079Z,60.60
2022-08-14T18:29:02.276Z,61.20
2022-08-14T18:31:44.139Z,60.50
2022-08-14T18:34:31.822Z,64.20
2022-08-14T18:37:17.820Z,65.70
2022-08-14T18:40:00.973Z,69.10
2022-08-14T18:42:45.705Z,65.10
2022-08-14T18:45:18.497Z,66.20
2022-08-14T18:48:06.698Z,69.80
2022-08-14T18:50:52.377Z,70.70
2022-08-14T18:53:25.027Z,67.70
2022-08-14T18:56:09.313Z,66.80
2022-08-14T18:58:56.854Z,66.80
2022-08-14T19:01:30.356Z,68.20
2022-08-14T19:04:01.258Z,69.70
2022-08-14T19:06:55.921Z,70.90
2022-08-14T19:09:57.784Z,68.10
2022-08-14T19:13:00.474Z,68.00
2022-08-14T19:15:31.821Z,70.60
2022-08-14T19:18:14.549Z,71.70
2022-08-14T19:20:53.753Z,73.90
2022-08-14T19:23:43.881Z,75.20
2022-08-14T19:26:35.636Z,73.90
2022-08-14T19:29:37.569Z,75.50
2022-08-14T19:32:28.474Z,72.90
2022-08-14T19:35:02.404Z,73.20
2022-08-14T19:37:52.447Z,73.70
2022-08-14T19:40:33.259Z,76.70
2022-08-14T19:43:06.627Z,75.90
2022-08-14T19:45:40.351Z,76.30
2022-08-14T19:48:15.940Z,75.60
2022-08-14T19:50:46.965Z,75.40
2022-08-14T19:53:17.733Z,77.50
2022-08-14T19:55:59.490Z,78.10
2022-08-14T19:58:55.136Z,77.60
2022-08-14T20:01:36.337Z,78.50
2022-08-14T20:04:44.944Z,76.10
2022-08-14T20:07:00.140Z,77.30
2022-08-14T20:11:06.962Z,76.90
2022-08-14T20:12:28.842Z,75.30
2022-08-14T20:15:08.659Z,74.70
2022-08-14T20:17:40.437Z,72.10
2022-08-14T20:20:20.909Z,68.90
2022-08-14T20:23:11.516Z,69.00
2022-08-14T20:25:45.637Z,68.90
2022-08-14T20:28:35.646Z,69.50
2022-08-14T20:31:15.895Z,69.80
2022-08-14T20:34:06.972Z,70.60
2022-08-14T20:36:40.959Z,69.90
2022-08-14T20:39:15.216Z,69.40
2022-08-14T20:41:51.530Z,69.40
2022-08-14T20:44:39.024Z,69.50
2022-08-14T20:47:08.044Z,69.50
2022-08-14T20:49:37.325Z,70.00
2022-08-14T20:52:19.104Z,69.80
2022-08-14T20:54:51.468Z,70.20
2022-08-14T20:57:20.872Z,70.80
2022-08-14T20:59:53.023Z,71.10
2022-08-14T21:02:34.631Z,71.00
2022-08-14T21:05:16.916Z,70.80
2022-08-14T21:07:51.194Z,71.60
2022-08-14T21:10:35.891Z,73.30
2022-08-14T21:14:08.915Z,73.10
2022-08-14T21:16:03.795Z,74.00
2022-08-14T21:18:44.900Z,73.00
2022-08-14T21:21:19.711Z,74.60
2022-08-14T21:23:54.738Z,73.70
2022-08-14T21:26:50.620Z,72.90
2022-08-14T21:29:14.662Z,74.30
2022-08-14T21:31:55.589Z,73.20
2022-08-14T21:34:31.065Z,73.20
2022-08-14T21:37:09.039Z,73.30
2022-08-14T21:39:38.495Z,73.00
2022-08-14T21:42:07.233Z,73.10
2022-08-14T21:44:43.087Z,72.30
2022-08-14T21:47:13.502Z,72.60
2022-08-14T21:49:48.168Z,72.00
2022-08-14T21:52:51.987Z,72.30
2022-08-14T21:55:13.898Z,72.20
2022-08-14T21:58:38.548Z,72.70
2022-08-14T22:00:39.391Z,72.10
2022-08-14T22:03:10.643Z,73.20
2022-08-14T22:05:41.925Z,73.70
2022-08-14T22:08:14.181Z,73.50
2022-08-14T22:10:46.402Z,72.80
2022-08-14T22:13:16.801Z,73.90
2022-08-14T22:15:50.155Z,73.90
2022-08-14T22:18:21.186Z,74.60
2022-08-14T22:20:56.687Z,74.30
2022-08-14T22:23:27.080Z,74.40
2022-08-14T22:25:56.185Z,74.30
2022-08-14T22:28:32.774Z,75.50
2022-08-14T22:31:03.949Z,74.80
2022-08-14T22:33:39.949Z,73.90
2022-08-14T22:36:25.589Z,74.80
2022-08-14T22:38:54.623Z,74.40
2022-08-14T22:41:27.767Z,75.10
2022-08-14T22:44:06.552Z,75.00
2022-08-14T22:46:34.978Z,76.50
2022-08-14T22:49:16.378Z,74.80
2022-08-14T22:51:53.896Z,76.80
2022-08-14T22:54:52.653Z,76.10
2022-08-14T22:57:12.831Z,75.40
2022-08-14T22:59:41.100Z,75.80
2022-08-14T23:02:13.837Z,77.40
2022-08-14T23:04:53.723Z,76.40
2022-08-14T23:07:24.701Z,77.40
2022-08-14T23:09:56.486Z,78.10
2022-08-14T23:12:31.580Z,77.80
2022-08-14T23:15:01.056Z,78.60
2022-08-14T23:17:39.379Z,78.70
2022-08-14T23:20:19.071Z,77.60
2022-08-14T23:22:52.576Z,80.30
2022-08-14T23:25:57.079Z,81.40
2022-08-14T23:28:34.473Z,80.10
2022-08-14T23:31:05.918Z,80.10
2022-08-14T23:33:36.658Z,79.90
2022-08-14T23:36:28.457Z,81.30
2022-08-14T23:39:07.239Z,80.10
2022-08-14T23:41:47.092Z,80.70
2022-08-14T23:44:23.609Z,81.20
2022-08-14T23:46:58.768Z,81.70
2022-08-14T23:49:56.411Z,81.30
2022-08-14T23:52:56.203Z,80.90
2022-08-14T23:55:12.830Z,80.90
2022-08-14T23:57:44.135Z,81.20
